Connexion S'enregistrer

Connexion à votre compte

Identifiant
Mot de passe
Maintenir la connexion active sur ce site

Créer un compte

Pour valider ce formulaire, vous devez remplir tous les champs.
Nom
Identifiant
Mot de passe
Répétez le mot de passe
Adresse e-mail
Répétez l'adresse e-mail

Nous contacter

 Téléphone : +33 (0)4 79 54 41 81

Coordonnées détaillées et accès : cliquez ici

 
LFLB °C
    Ferienhaus Ostsee
[source: ADDS]
METAR
LFLB 292130Z AUTO 02009KT 9999 BKN056 02/M03 Q1021 =
TAF LFLB 291400Z 2915/3015 34006KT 9999 BKN035 BECMG 2918/2921 VRB02KT BECMG 2922/3002 SCT035 PROB40 TEMPO 3003/3007 3000 BR
TAF
TAF LFLB 291400Z 2915/3015 34006KT 9999 BKN035 BECMG 2918/2921 VRB02KT BECMG 2922/3002 SCT035 PROB40 TEMPO 3003/3007 3000 BR =
SR / SS: 06:54 / 15:55 UTC (Lever/Coucher du soleil le 2021-11-29)
JSN Boot template designed by JoomlaShine.com